sensor_id;sensor_type;location;lat;lon;timestamp;temperature;humidity
27376;DHT22;14844;51.302;6.354;2023-08-24T00:01:56;17.50;99.90
27376;DHT22;14844;51.302;6.354;2023-08-24T00:04:21;17.50;99.90
27376;DHT22;14844;51.302;6.354;2023-08-24T00:06:48;17.40;99.90
27376;DHT22;14844;51.302;6.354;2023-08-24T00:09:13;17.30;99.90
27376;DHT22;14844;51.302;6.354;2023-08-24T00:11:40;17.30;99.90
27376;DHT22;14844;51.302;6.354;2023-08-24T00:14:06;17.20;99.90
27376;DHT22;14844;51.302;6.354;2023-08-24T00:16:31;17.10;99.90
27376;DHT22;14844;51.302;6.354;2023-08-24T00:18:57;17.00;99.90
27376;DHT22;14844;51.302;6.354;2023-08-24T00:21:23;17.00;99.90
27376;DHT22;14844;51.302;6.354;2023-08-24T00:23:49;16.90;99.90
27376;DHT22;14844;51.302;6.354;2023-08-24T00:26:15;16.90;99.90
27376;DHT22;14844;51.302;6.354;2023-08-24T00:28:42;16.80;99.90
27376;DHT22;14844;51.302;6.354;2023-08-24T00:31:08;16.70;99.90
27376;DHT22;14844;51.302;6.354;2023-08-24T00:33:33;16.70;99.90
27376;DHT22;14844;51.302;6.354;2023-08-24T00:35:59;16.70;99.90
27376;DHT22;14844;51.302;6.354;2023-08-24T00:38:25;16.70;99.90
27376;DHT22;14844;51.302;6.354;2023-08-24T00:40:51;16.60;99.90
27376;DHT22;14844;51.302;6.354;2023-08-24T00:43:18;16.60;99.90
27376;DHT22;14844;51.302;6.354;2023-08-24T00:45:47;16.60;99.90
27376;DHT22;14844;51.302;6.354;2023-08-24T00:48:12;16.60;99.90
27376;DHT22;14844;51.302;6.354;2023-08-24T00:50:38;16.60;99.90
27376;DHT22;14844;51.302;6.354;2023-08-24T00:53:03;16.60;99.90
27376;DHT22;14844;51.302;6.354;2023-08-24T00:55:29;16.60;99.90
27376;DHT22;14844;51.302;6.354;2023-08-24T00:57:54;16.70;99.90
27376;DHT22;14844;51.302;6.354;2023-08-24T01:00:21;16.80;99.90
27376;DHT22;14844;51.302;6.354;2023-08-24T01:02:47;16.70;99.90
27376;DHT22;14844;51.302;6.354;2023-08-24T01:05:12;16.70;99.90
27376;DHT22;14844;51.302;6.354;2023-08-24T01:07:38;16.70;99.90
27376;DHT22;14844;51.302;6.354;2023-08-24T01:10:04;16.70;99.90
27376;DHT22;14844;51.302;6.354;2023-08-24T01:15:13;16.70;99.90
27376;DHT22;14844;51.302;6.354;2023-08-24T01:17:42;16.70;99.90
27376;DHT22;14844;51.302;6.354;2023-08-24T01:20:10;16.70;99.90
27376;DHT22;14844;51.302;6.354;2023-08-24T01:28:01;16.50;99.90
27376;DHT22;14844;51.302;6.354;2023-08-24T01:30:27;16.50;99.90
27376;DHT22;14844;51.302;6.354;2023-08-24T01:32:53;16.40;99.90
27376;DHT22;14844;51.302;6.354;2023-08-24T01:35:18;16.40;99.90
27376;DHT22;14844;51.302;6.354;2023-08-24T01:37:44;16.40;99.90
27376;DHT22;14844;51.302;6.354;2023-08-24T01:42:41;16.30;99.90
27376;DHT22;14844;51.302;6.354;2023-08-24T01:45:08;16.30;99.90
27376;DHT22;14844;51.302;6.354;2023-08-24T01:47:35;16.30;99.90
27376;DHT22;14844;51.302;6.354;2023-08-24T01:50:02;16.40;99.90
27376;DHT22;14844;51.302;6.354;2023-08-24T01:52:28;16.40;99.90
27376;DHT22;14844;51.302;6.354;2023-08-24T01:54:53;16.50;99.90
27376;DHT22;14844;51.302;6.354;2023-08-24T01:57:19;16.50;99.90
27376;DHT22;14844;51.302;6.354;2023-08-24T01:59:44;16.40;99.90
27376;DHT22;14844;51.302;6.354;2023-08-24T02:02:10;16.40;99.90
27376;DHT22;14844;51.302;6.354;2023-08-24T02:04:35;16.30;99.90
27376;DHT22;14844;51.302;6.354;2023-08-24T02:07:01;16.30;99.90
27376;DHT22;14844;51.302;6.354;2023-08-24T02:09:26;16.40;99.90
27376;DHT22;14844;51.302;6.354;2023-08-24T02:11:52;16.40;99.90
27376;DHT22;14844;51.302;6.354;2023-08-24T02:14:17;16.50;99.90
27376;DHT22;14844;51.302;6.354;2023-08-24T02:16:43;16.50;99.90
27376;DHT22;14844;51.302;6.354;2023-08-24T02:19:08;16.50;99.90
27376;DHT22;14844;51.302;6.354;2023-08-24T02:21:36;16.60;99.90
27376;DHT22;14844;51.302;6.354;2023-08-24T02:24:02;16.60;99.90
27376;DHT22;14844;51.302;6.354;2023-08-24T02:26:28;16.60;99.90
27376;DHT22;14844;51.302;6.354;2023-08-24T02:28:53;16.70;99.90
27376;DHT22;14844;51.302;6.354;2023-08-24T02:31:19;16.70;99.90
27376;DHT22;14844;51.302;6.354;2023-08-24T02:33:44;16.60;99.90
27376;DHT22;14844;51.302;6.354;2023-08-24T02:36:10;16.60;99.90
27376;DHT22;14844;51.302;6.354;2023-08-24T02:38:35;16.70;99.90
27376;DHT22;14844;51.302;6.354;2023-08-24T02:41:01;16.70;99.90
27376;DHT22;14844;51.302;6.354;2023-08-24T02:43:27;16.70;99.90
27376;DHT22;14844;51.302;6.354;2023-08-24T02:45:53;16.70;99.90
27376;DHT22;14844;51.302;6.354;2023-08-24T02:48:18;16.70;99.90
27376;DHT22;14844;51.302;6.354;2023-08-24T02:50:47;16.70;99.90
27376;DHT22;14844;51.302;6.354;2023-08-24T02:53:12;16.70;99.90
27376;DHT22;14844;51.302;6.354;2023-08-24T02:55:38;16.80;99.90
27376;DHT22;14844;51.302;6.354;2023-08-24T02:58:03;16.80;99.90
27376;DHT22;14844;51.302;6.354;2023-08-24T03:00:29;16.80;99.90
27376;DHT22;14844;51.302;6.354;2023-08-24T03:02:54;16.80;99.90
27376;DHT22;14844;51.302;6.354;2023-08-24T03:05:20;16.90;99.90
27376;DHT22;14844;51.302;6.354;2023-08-24T03:07:45;16.90;99.90
27376;DHT22;14844;51.302;6.354;2023-08-24T03:10:11;16.90;99.90
27376;DHT22;14844;51.302;6.354;2023-08-24T03:12:36;17.00;99.90
27376;DHT22;14844;51.302;6.354;2023-08-24T03:15:02;17.00;99.90
27376;DHT22;14844;51.302;6.354;2023-08-24T03:17:27;17.10;99.90
27376;DHT22;14844;51.302;6.354;2023-08-24T03:19:53;17.20;99.90
27376;DHT22;14844;51.302;6.354;2023-08-24T03:22:18;17.30;99.90
27376;DHT22;14844;51.302;6.354;2023-08-24T03:24:44;17.30;99.90
27376;DHT22;14844;51.302;6.354;2023-08-24T03:27:09;17.30;99.90
27376;DHT22;14844;51.302;6.354;2023-08-24T03:29:34;17.30;99.90
27376;DHT22;14844;51.302;6.354;2023-08-24T03:32:00;17.40;99.90
27376;DHT22;14844;51.302;6.354;2023-08-24T03:34:25;17.40;99.90
27376;DHT22;14844;51.302;6.354;2023-08-24T03:36:52;17.50;99.90
27376;DHT22;14844;51.302;6.354;2023-08-24T03:39:17;17.50;99.90
27376;DHT22;14844;51.302;6.354;2023-08-24T03:41:43;17.50;99.90
27376;DHT22;14844;51.302;6.354;2023-08-24T03:44:08;17.60;99.90
27376;DHT22;14844;51.302;6.354;2023-08-24T03:46:34;17.60;99.90
27376;DHT22;14844;51.302;6.354;2023-08-24T03:48:59;17.70;99.90
27376;DHT22;14844;51.302;6.354;2023-08-24T03:51:25;17.80;99.90
27376;DHT22;14844;51.302;6.354;2023-08-24T03:53:50;17.80;99.90
27376;DHT22;14844;51.302;6.354;2023-08-24T03:56:16;17.90;99.90
27376;DHT22;14844;51.302;6.354;2023-08-24T03:58:41;17.90;99.90
27376;DHT22;14844;51.302;6.354;2023-08-24T04:01:10;17.90;99.90
27376;DHT22;14844;51.302;6.354;2023-08-24T04:03:36;17.90;99.90
27376;DHT22;14844;51.302;6.354;2023-08-24T04:06:01;17.90;99.90
27376;DHT22;14844;51.302;6.354;2023-08-24T04:08:27;17.80;99.90
27376;DHT22;14844;51.302;6.354;2023-08-24T04:10:52;17.90;99.90
27376;DHT22;14844;51.302;6.354;2023-08-24T04:13:18;17.90;99.90
27376;DHT22;14844;51.302;6.354;2023-08-24T04:15:43;17.90;99.90
27376;DHT22;14844;51.302;6.354;2023-08-24T04:18:09;17.90;99.90
27376;DHT22;14844;51.302;6.354;2023-08-24T04:20:34;17.90;99.90
27376;DHT22;14844;51.302;6.354;2023-08-24T04:23:01;17.80;99.90
27376;DHT22;14844;51.302;6.354;2023-08-24T04:25:26;17.80;99.90
27376;DHT22;14844;51.302;6.354;2023-08-24T04:27:52;17.70;99.90
27376;DHT22;14844;51.302;6.354;2023-08-24T04:30:17;17.80;99.90
27376;DHT22;14844;51.302;6.354;2023-08-24T04:32:43;17.70;99.90
27376;DHT22;14844;51.302;6.354;2023-08-24T04:35:08;17.70;99.90
27376;DHT22;14844;51.302;6.354;2023-08-24T04:37:35;17.70;99.90
27376;DHT22;14844;51.302;6.354;2023-08-24T04:40:00;17.70;99.90
27376;DHT22;14844;51.302;6.354;2023-08-24T04:42:26;17.70;99.90
27376;DHT22;14844;51.302;6.354;2023-08-24T04:44:51;17.70;99.90
27376;DHT22;14844;51.302;6.354;2023-08-24T04:47:17;17.60;99.90
27376;DHT22;14844;51.302;6.354;2023-08-24T04:49:42;17.70;99.90
27376;DHT22;14844;51.302;6.354;2023-08-24T04:52:08;17.60;99.90
27376;DHT22;14844;51.302;6.354;2023-08-24T04:54:33;17.70;99.90
27376;DHT22;14844;51.302;6.354;2023-08-24T04:56:59;17.80;99.90
27376;DHT22;14844;51.302;6.354;2023-08-24T04:59:24;17.80;99.90
27376;DHT22;14844;51.302;6.354;2023-08-24T05:01:50;17.90;99.90
27376;DHT22;14844;51.302;6.354;2023-08-24T05:04:15;17.90;99.90
27376;DHT22;14844;51.302;6.354;2023-08-24T05:06:42;17.90;99.90
27376;DHT22;14844;51.302;6.354;2023-08-24T05:09:07;17.90;99.90
27376;DHT22;14844;51.302;6.354;2023-08-24T05:11:35;18.00;99.90
27376;DHT22;14844;51.302;6.354;2023-08-24T05:14:01;18.00;99.90
27376;DHT22;14844;51.302;6.354;2023-08-24T05:16:26;18.00;99.90
27376;DHT22;14844;51.302;6.354;2023-08-24T05:18:53;18.00;99.90
27376;DHT22;14844;51.302;6.354;2023-08-24T05:21:18;18.00;99.90
27376;DHT22;14844;51.302;6.354;2023-08-24T05:23:44;18.10;99.90
27376;DHT22;14844;51.302;6.354;2023-08-24T05:26:09;18.10;99.90
27376;DHT22;14844;51.302;6.354;2023-08-24T05:28:35;18.10;99.90
27376;DHT22;14844;51.302;6.354;2023-08-24T05:31:00;18.10;99.90
27376;DHT22;14844;51.302;6.354;2023-08-24T05:33:26;18.10;99.90
27376;DHT22;14844;51.302;6.354;2023-08-24T05:35:52;18.10;99.90
27376;DHT22;14844;51.302;6.354;2023-08-24T05:38:18;18.20;99.90
27376;DHT22;14844;51.302;6.354;2023-08-24T05:40:43;18.20;99.90
27376;DHT22;14844;51.302;6.354;2023-08-24T05:43:11;18.20;99.90
27376;DHT22;14844;51.302;6.354;2023-08-24T05:45:37;18.20;99.90
27376;DHT22;14844;51.302;6.354;2023-08-24T05:48:05;18.20;99.90
27376;DHT22;14844;51.302;6.354;2023-08-24T05:50:30;18.30;99.90
27376;DHT22;14844;51.302;6.354;2023-08-24T05:52:56;18.40;99.90
27376;DHT22;14844;51.302;6.354;2023-08-24T05:55:22;18.40;99.90
27376;DHT22;14844;51.302;6.354;2023-08-24T05:57:47;18.40;99.90
27376;DHT22;14844;51.302;6.354;2023-08-24T06:00:13;18.50;99.90
27376;DHT22;14844;51.302;6.354;2023-08-24T06:02:39;18.60;99.90
27376;DHT22;14844;51.302;6.354;2023-08-24T06:05:05;18.70;99.90
27376;DHT22;14844;51.302;6.354;2023-08-24T06:07:31;18.80;99.90
27376;DHT22;14844;51.302;6.354;2023-08-24T06:09:57;19.00;99.90
27376;DHT22;14844;51.302;6.354;2023-08-24T06:12:23;19.10;99.90
27376;DHT22;14844;51.302;6.354;2023-08-24T06:14:49;19.20;99.90
27376;DHT22;14844;51.302;6.354;2023-08-24T06:17:14;19.30;99.90
27376;DHT22;14844;51.302;6.354;2023-08-24T06:19:39;19.40;99.90
27376;DHT22;14844;51.302;6.354;2023-08-24T06:22:05;19.60;99.90
27376;DHT22;14844;51.302;6.354;2023-08-24T06:24:31;19.80;99.90
27376;DHT22;14844;51.302;6.354;2023-08-24T06:26:56;19.90;99.90
27376;DHT22;14844;51.302;6.354;2023-08-24T06:29:22;20.10;99.90
27376;DHT22;14844;51.302;6.354;2023-08-24T06:31:47;20.20;99.90
27376;DHT22;14844;51.302;6.354;2023-08-24T06:34:13;20.40;99.90
27376;DHT22;14844;51.302;6.354;2023-08-24T06:36:38;20.50;99.90
27376;DHT22;14844;51.302;6.354;2023-08-24T06:39:04;20.60;99.90
27376;DHT22;14844;51.302;6.354;2023-08-24T06:41:33;20.70;99.90
27376;DHT22;14844;51.302;6.354;2023-08-24T06:43:59;20.80;99.90
27376;DHT22;14844;51.302;6.354;2023-08-24T06:46:25;21.00;99.90
27376;DHT22;14844;51.302;6.354;2023-08-24T06:48:50;21.10;99.90
27376;DHT22;14844;51.302;6.354;2023-08-24T06:51:16;21.30;99.90
27376;DHT22;14844;51.302;6.354;2023-08-24T06:53:41;21.50;99.90
27376;DHT22;14844;51.302;6.354;2023-08-24T06:56:07;21.70;99.90
27376;DHT22;14844;51.302;6.354;2023-08-24T06:58:34;21.90;99.90
27376;DHT22;14844;51.302;6.354;2023-08-24T07:01:00;22.00;99.90
27376;DHT22;14844;51.302;6.354;2023-08-24T07:03:25;22.20;99.90
27376;DHT22;14844;51.302;6.354;2023-08-24T07:05:51;22.30;99.90
27376;DHT22;14844;51.302;6.354;2023-08-24T07:08:16;22.40;99.90
27376;DHT22;14844;51.302;6.354;2023-08-24T07:10:42;22.60;99.90
27376;DHT22;14844;51.302;6.354;2023-08-24T07:13:07;22.80;99.90
27376;DHT22;14844;51.302;6.354;2023-08-24T07:15:34;22.90;99.90
27376;DHT22;14844;51.302;6.354;2023-08-24T07:18:03;23.10;99.90
27376;DHT22;14844;51.302;6.354;2023-08-24T07:20:32;23.20;99.90
27376;DHT22;14844;51.302;6.354;2023-08-24T07:22:57;23.40;99.90
27376;DHT22;14844;51.302;6.354;2023-08-24T07:25:23;23.50;99.90
27376;DHT22;14844;51.302;6.354;2023-08-24T07:27:48;23.70;99.90
27376;DHT22;14844;51.302;6.354;2023-08-24T07:30:14;23.70;99.90
27376;DHT22;14844;51.302;6.354;2023-08-24T07:32:39;24.00;99.90
27376;DHT22;14844;51.302;6.354;2023-08-24T07:35:06;24.00;99.90
27376;DHT22;14844;51.302;6.354;2023-08-24T07:37:32;24.20;99.90
27376;DHT22;14844;51.302;6.354;2023-08-24T07:39:57;24.30;99.90
27376;DHT22;14844;51.302;6.354;2023-08-24T07:42:23;24.40;99.90
27376;DHT22;14844;51.302;6.354;2023-08-24T07:44:49;24.50;99.90
27376;DHT22;14844;51.302;6.354;2023-08-24T07:47:14;24.70;99.90
27376;DHT22;14844;51.302;6.354;2023-08-24T07:49:40;24.90;99.90
27376;DHT22;14844;51.302;6.354;2023-08-24T07:52:12;25.00;99.90
27376;DHT22;14844;51.302;6.354;2023-08-24T07:54:38;25.10;99.90
27376;DHT22;14844;51.302;6.354;2023-08-24T07:57:04;25.20;99.90
27376;DHT22;14844;51.302;6.354;2023-08-24T07:59:30;25.30;99.90
27376;DHT22;14844;51.302;6.354;2023-08-24T08:01:56;25.30;99.90
27376;DHT22;14844;51.302;6.354;2023-08-24T08:04:21;25.40;99.90
27376;DHT22;14844;51.302;6.354;2023-08-24T08:06:46;25.70;99.90
27376;DHT22;14844;51.302;6.354;2023-08-24T08:09:12;25.90;99.90
27376;DHT22;14844;51.302;6.354;2023-08-24T08:11:38;26.00;99.90
27376;DHT22;14844;51.302;6.354;2023-08-24T08:14:03;26.10;99.90
27376;DHT22;14844;51.302;6.354;2023-08-24T08:16:29;26.10;99.90
27376;DHT22;14844;51.302;6.354;2023-08-24T08:18:54;26.20;99.90
27376;DHT22;14844;51.302;6.354;2023-08-24T08:21:20;26.40;99.90
27376;DHT22;14844;51.302;6.354;2023-08-24T08:23:45;26.60;99.90
27376;DHT22;14844;51.302;6.354;2023-08-24T08:26:11;26.60;99.90
27376;DHT22;14844;51.302;6.354;2023-08-24T08:28:37;26.60;99.90
27376;DHT22;14844;51.302;6.354;2023-08-24T08:31:02;26.70;99.90
27376;DHT22;14844;51.302;6.354;2023-08-24T08:33:28;26.90;99.90
27376;DHT22;14844;51.302;6.354;2023-08-24T08:35:54;26.90;99.90
27376;DHT22;14844;51.302;6.354;2023-08-24T08:38:20;27.00;99.90
27376;DHT22;14844;51.302;6.354;2023-08-24T08:40:50;27.20;99.90
27376;DHT22;14844;51.302;6.354;2023-08-24T08:43:16;27.30;99.90
27376;DHT22;14844;51.302;6.354;2023-08-24T08:45:42;27.30;99.90
27376;DHT22;14844;51.302;6.354;2023-08-24T08:48:07;27.40;99.90
27376;DHT22;14844;51.302;6.354;2023-08-24T08:50:34;27.50;99.90
27376;DHT22;14844;51.302;6.354;2023-08-24T08:53:00;27.50;99.90
27376;DHT22;14844;51.302;6.354;2023-08-24T08:55:26;27.60;99.90
27376;DHT22;14844;51.302;6.354;2023-08-24T08:57:53;27.80;99.90
27376;DHT22;14844;51.302;6.354;2023-08-24T09:00:23;28.00;99.90
27376;DHT22;14844;51.302;6.354;2023-08-24T09:02:49;28.20;99.90
27376;DHT22;14844;51.302;6.354;2023-08-24T09:05:16;28.50;99.90
27376;DHT22;14844;51.302;6.354;2023-08-24T09:07:42;28.60;99.90
27376;DHT22;14844;51.302;6.354;2023-08-24T09:10:08;28.80;99.90
27376;DHT22;14844;51.302;6.354;2023-08-24T09:12:34;29.10;99.90
27376;DHT22;14844;51.302;6.354;2023-08-24T09:14:59;29.30;99.90
27376;DHT22;14844;51.302;6.354;2023-08-24T09:17:25;29.30;99.90
27376;DHT22;14844;51.302;6.354;2023-08-24T09:19:50;29.10;99.90
27376;DHT22;14844;51.302;6.354;2023-08-24T09:22:19;29.00;99.90
27376;DHT22;14844;51.302;6.354;2023-08-24T09:24:45;29.10;99.90
27376;DHT22;14844;51.302;6.354;2023-08-24T09:27:18;29.20;99.90
27376;DHT22;14844;51.302;6.354;2023-08-24T09:29:53;29.00;99.90
27376;DHT22;14844;51.302;6.354;2023-08-24T09:32:22;28.80;99.90
27376;DHT22;14844;51.302;6.354;2023-08-24T09:34:48;28.90;99.90
27376;DHT22;14844;51.302;6.354;2023-08-24T09:37:15;29.10;99.90
27376;DHT22;14844;51.302;6.354;2023-08-24T09:39:41;29.20;99.90
27376;DHT22;14844;51.302;6.354;2023-08-24T09:42:07;29.30;99.90
27376;DHT22;14844;51.302;6.354;2023-08-24T09:44:32;29.50;99.90
27376;DHT22;14844;51.302;6.354;2023-08-24T09:46:58;29.70;99.90
27376;DHT22;14844;51.302;6.354;2023-08-24T09:49:24;29.90;99.40
27376;DHT22;14844;51.302;6.354;2023-08-24T09:51:51;30.00;99.10
27376;DHT22;14844;51.302;6.354;2023-08-24T09:54:21;30.20;99.50
27376;DHT22;14844;51.302;6.354;2023-08-24T09:56:47;30.10;98.80
27376;DHT22;14844;51.302;6.354;2023-08-24T10:01:42;30.30;98.70
27376;DHT22;14844;51.302;6.354;2023-08-24T10:04:09;30.40;98.80
27376;DHT22;14844;51.302;6.354;2023-08-24T10:06:34;30.30;98.00
27376;DHT22;14844;51.302;6.354;2023-08-24T10:09:02;30.60;98.50
27376;DHT22;14844;51.302;6.354;2023-08-24T10:11:30;30.70;98.60
27376;DHT22;14844;51.302;6.354;2023-08-24T10:14:07;30.80;97.50
27376;DHT22;14844;51.302;6.354;2023-08-24T10:16:33;30.90;97.50
27376;DHT22;14844;51.302;6.354;2023-08-24T10:18:59;31.20;96.70
27376;DHT22;14844;51.302;6.354;2023-08-24T10:21:25;31.40;96.60
27376;DHT22;14844;51.302;6.354;2023-08-24T10:23:52;31.70;95.90
27376;DHT22;14844;51.302;6.354;2023-08-24T10:26:18;31.80;95.50
27376;DHT22;14844;51.302;6.354;2023-08-24T10:28:45;31.80;95.50
27376;DHT22;14844;51.302;6.354;2023-08-24T10:31:10;31.70;95.10
27376;DHT22;14844;51.302;6.354;2023-08-24T10:33:36;31.70;95.10
27376;DHT22;14844;51.302;6.354;2023-08-24T10:36:05;31.90;95.70
27376;DHT22;14844;51.302;6.354;2023-08-24T10:38:34;32.00;95.00
27376;DHT22;14844;51.302;6.354;2023-08-24T10:41:02;32.20;95.00
27376;DHT22;14844;51.302;6.354;2023-08-24T10:43:29;32.30;94.90
27376;DHT22;14844;51.302;6.354;2023-08-24T10:45:55;32.60;94.50
27376;DHT22;14844;51.302;6.354;2023-08-24T10:48:36;32.50;94.20
27376;DHT22;14844;51.302;6.354;2023-08-24T10:53:39;32.80;93.90
27376;DHT22;14844;51.302;6.354;2023-08-24T10:56:11;32.70;94.00
27376;DHT22;14844;51.302;6.354;2023-08-24T10:58:37;32.80;94.40
27376;DHT22;14844;51.302;6.354;2023-08-24T11:01:03;32.80;93.90
27376;DHT22;14844;51.302;6.354;2023-08-24T11:03:31;32.70;94.20
27376;DHT22;14844;51.302;6.354;2023-08-24T11:05:58;32.60;94.10
27376;DHT22;14844;51.302;6.354;2023-08-24T11:08:43;32.30;94.20
27376;DHT22;14844;51.302;6.354;2023-08-24T11:11:21;31.90;94.60
27376;DHT22;14844;51.302;6.354;2023-08-24T11:16:38;31.30;96.00
27376;DHT22;14844;51.302;6.354;2023-08-24T11:19:04;30.70;95.40
27376;DHT22;14844;51.302;6.354;2023-08-24T11:21:30;30.30;96.30
27376;DHT22;14844;51.302;6.354;2023-08-24T11:23:55;29.90;96.70
27376;DHT22;14844;51.302;6.354;2023-08-24T11:26:21;29.60;97.30
27376;DHT22;14844;51.302;6.354;2023-08-24T11:28:47;29.60;97.90
27376;DHT22;14844;51.302;6.354;2023-08-24T11:31:24;29.70;98.10
27376;DHT22;14844;51.302;6.354;2023-08-24T11:33:55;29.80;98.10
27376;DHT22;14844;51.302;6.354;2023-08-24T11:36:23;30.00;97.90
27376;DHT22;14844;51.302;6.354;2023-08-24T11:38:52;30.00;97.90
27376;DHT22;14844;51.302;6.354;2023-08-24T11:41:18;30.20;97.90
27376;DHT22;14844;51.302;6.354;2023-08-24T11:43:45;30.20;97.40
27376;DHT22;14844;51.302;6.354;2023-08-24T11:46:11;30.10;97.40
27376;DHT22;14844;51.302;6.354;2023-08-24T11:48:37;30.20;96.80
27376;DHT22;14844;51.302;6.354;2023-08-24T11:51:07;30.00;96.90
27376;DHT22;14844;51.302;6.354;2023-08-24T11:53:36;29.60;97.00
27376;DHT22;14844;51.302;6.354;2023-08-24T11:56:02;29.20;98.00
27376;DHT22;14844;51.302;6.354;2023-08-24T11:58:27;28.80;98.30
27376;DHT22;14844;51.302;6.354;2023-08-24T12:00:53;28.40;99.50
27376;DHT22;14844;51.302;6.354;2023-08-24T12:03:19;28.00;99.90
27376;DHT22;14844;51.302;6.354;2023-08-24T12:05:44;27.80;99.90
27376;DHT22;14844;51.302;6.354;2023-08-24T12:08:11;27.50;99.90
27376;DHT22;14844;51.302;6.354;2023-08-24T12:10:41;27.20;99.90
27376;DHT22;14844;51.302;6.354;2023-08-24T12:13:06;26.70;99.90
27376;DHT22;14844;51.302;6.354;2023-08-24T12:15:35;26.30;99.90
27376;DHT22;14844;51.302;6.354;2023-08-24T12:18:08;26.20;99.90
27376;DHT22;14844;51.302;6.354;2023-08-24T12:20:33;26.10;99.90
27376;DHT22;14844;51.302;6.354;2023-08-24T12:22:59;26.10;99.90
27376;DHT22;14844;51.302;6.354;2023-08-24T12:25:25;26.00;99.90
27376;DHT22;14844;51.302;6.354;2023-08-24T12:27:51;26.00;99.90
27376;DHT22;14844;51.302;6.354;2023-08-24T12:30:17;26.20;99.90
27376;DHT22;14844;51.302;6.354;2023-08-24T12:32:43;26.30;99.90
27376;DHT22;14844;51.302;6.354;2023-08-24T12:35:13;26.40;99.90
27376;DHT22;14844;51.302;6.354;2023-08-24T12:37:39;26.70;99.90
27376;DHT22;14844;51.302;6.354;2023-08-24T12:40:05;27.00;99.90
27376;DHT22;14844;51.302;6.354;2023-08-24T12:42:31;27.50;99.90
27376;DHT22;14844;51.302;6.354;2023-08-24T12:44:57;28.00;99.90
27376;DHT22;14844;51.302;6.354;2023-08-24T12:47:22;28.60;99.90
27376;DHT22;14844;51.302;6.354;2023-08-24T12:49:48;29.00;99.90
27376;DHT22;14844;51.302;6.354;2023-08-24T12:52:13;29.30;99.90
27376;DHT22;14844;51.302;6.354;2023-08-24T12:54:39;29.60;99.90
27376;DHT22;14844;51.302;6.354;2023-08-24T12:57:04;29.60;99.90
27376;DHT22;14844;51.302;6.354;2023-08-24T12:59:30;29.60;99.90
27376;DHT22;14844;51.302;6.354;2023-08-24T13:01:55;29.40;99.90
27376;DHT22;14844;51.302;6.354;2023-08-24T13:04:21;29.20;99.90
27376;DHT22;14844;51.302;6.354;2023-08-24T13:06:46;29.10;99.90
27376;DHT22;14844;51.302;6.354;2023-08-24T13:09:12;29.10;99.90
27376;DHT22;14844;51.302;6.354;2023-08-24T13:11:39;28.90;99.90
27376;DHT22;14844;51.302;6.354;2023-08-24T13:14:04;28.80;99.90
27376;DHT22;14844;51.302;6.354;2023-08-24T13:16:30;28.90;99.90
27376;DHT22;14844;51.302;6.354;2023-08-24T13:18:55;28.90;99.90
27376;DHT22;14844;51.302;6.354;2023-08-24T13:21:21;29.10;99.90
27376;DHT22;14844;51.302;6.354;2023-08-24T13:23:47;28.90;99.90
27376;DHT22;14844;51.302;6.354;2023-08-24T13:26:16;28.70;99.90
27376;DHT22;14844;51.302;6.354;2023-08-24T13:28:43;28.80;99.90
27376;DHT22;14844;51.302;6.354;2023-08-24T13:31:08;28.90;99.90
27376;DHT22;14844;51.302;6.354;2023-08-24T13:33:34;28.80;99.90
27376;DHT22;14844;51.302;6.354;2023-08-24T13:35:59;28.80;99.90
27376;DHT22;14844;51.302;6.354;2023-08-24T13:38:27;28.40;99.90
27376;DHT22;14844;51.302;6.354;2023-08-24T13:40:52;28.20;99.90
27376;DHT22;14844;51.302;6.354;2023-08-24T13:43:18;28.10;99.90
27376;DHT22;14844;51.302;6.354;2023-08-24T13:45:45;27.90;99.90
27376;DHT22;14844;51.302;6.354;2023-08-24T13:48:10;27.80;99.90
27376;DHT22;14844;51.302;6.354;2023-08-24T13:50:36;27.40;99.90
27376;DHT22;14844;51.302;6.354;2023-08-24T13:53:01;27.30;99.90
27376;DHT22;14844;51.302;6.354;2023-08-24T13:55:27;27.20;99.90
27376;DHT22;14844;51.302;6.354;2023-08-24T13:57:52;27.20;99.90
27376;DHT22;14844;51.302;6.354;2023-08-24T14:00:18;27.30;99.90
27376;DHT22;14844;51.302;6.354;2023-08-24T14:02:43;27.20;99.90
27376;DHT22;14844;51.302;6.354;2023-08-24T14:05:10;27.30;99.90
27376;DHT22;14844;51.302;6.354;2023-08-24T14:07:36;27.30;99.90
27376;DHT22;14844;51.302;6.354;2023-08-24T14:10:02;27.20;99.90
27376;DHT22;14844;51.302;6.354;2023-08-24T14:12:28;27.10;99.90
27376;DHT22;14844;51.302;6.354;2023-08-24T14:14:53;27.00;99.90
27376;DHT22;14844;51.302;6.354;2023-08-24T14:17:18;26.60;99.90
27376;DHT22;14844;51.302;6.354;2023-08-24T14:19:44;26.40;99.90
27376;DHT22;14844;51.302;6.354;2023-08-24T14:22:09;26.30;99.90
27376;DHT22;14844;51.302;6.354;2023-08-24T14:24:35;25.90;99.90
27376;DHT22;14844;51.302;6.354;2023-08-24T14:27:00;25.70;99.90
27376;DHT22;14844;51.302;6.354;2023-08-24T14:29:26;25.40;99.90
27376;DHT22;14844;51.302;6.354;2023-08-24T14:31:51;25.30;99.90
27376;DHT22;14844;51.302;6.354;2023-08-24T14:34:17;25.20;99.90
27376;DHT22;14844;51.302;6.354;2023-08-24T14:36:42;25.10;99.90
27376;DHT22;14844;51.302;6.354;2023-08-24T14:39:08;25.10;99.90
27376;DHT22;14844;51.302;6.354;2023-08-24T14:41:33;25.00;99.90
27376;DHT22;14844;51.302;6.354;2023-08-24T14:43:58;25.00;99.90
27376;DHT22;14844;51.302;6.354;2023-08-24T14:46:24;24.90;99.90
27376;DHT22;14844;51.302;6.354;2023-08-24T14:48:49;24.80;99.90
27376;DHT22;14844;51.302;6.354;2023-08-24T14:51:15;24.80;99.90
27376;DHT22;14844;51.302;6.354;2023-08-24T14:53:40;24.60;99.90
27376;DHT22;14844;51.302;6.354;2023-08-24T14:56:06;24.40;99.90
27376;DHT22;14844;51.302;6.354;2023-08-24T14:58:31;24.20;99.90
27376;DHT22;14844;51.302;6.354;2023-08-24T15:00:57;24.00;99.90
27376;DHT22;14844;51.302;6.354;2023-08-24T15:03:22;23.70;99.90
27376;DHT22;14844;51.302;6.354;2023-08-24T15:05:58;23.50;99.90
27376;DHT22;14844;51.302;6.354;2023-08-24T15:08:24;23.30;99.90
27376;DHT22;14844;51.302;6.354;2023-08-24T15:10:49;23.20;99.90
27376;DHT22;14844;51.302;6.354;2023-08-24T15:13:15;23.00;99.90
27376;DHT22;14844;51.302;6.354;2023-08-24T15:15:40;22.90;99.90
27376;DHT22;14844;51.302;6.354;2023-08-24T15:18:06;22.80;99.90
27376;DHT22;14844;51.302;6.354;2023-08-24T15:20:31;22.60;99.90
27376;DHT22;14844;51.302;6.354;2023-08-24T15:22:58;22.50;99.90
27376;DHT22;14844;51.302;6.354;2023-08-24T15:25:24;22.40;99.90
27376;DHT22;14844;51.302;6.354;2023-08-24T15:27:49;22.40;99.90
27376;DHT22;14844;51.302;6.354;2023-08-24T15:30:15;22.30;99.90
27376;DHT22;14844;51.302;6.354;2023-08-24T15:32:40;22.20;99.90
27376;DHT22;14844;51.302;6.354;2023-08-24T15:35:06;22.20;99.90
27376;DHT22;14844;51.302;6.354;2023-08-24T15:37:31;22.20;99.90
27376;DHT22;14844;51.302;6.354;2023-08-24T15:39:57;22.20;99.90
27376;DHT22;14844;51.302;6.354;2023-08-24T15:42:23;22.10;99.90